Time;durP1;ratioP1;P1;durP2;ratioP2;P2;SDS_P1;SDS_P2;PMS_P1;PMS_P2;Temp;Humidity;BMP_temperature;BMP_pressure;BME280_temperature;BME280_humidity;BME280_pressure;Samples;Min_cycle;Max_cycle;Signal;HPM_P1;HPM_P2
2022/01/23 00:02:20;;;;;;;25.52;7.38;;;5.70;99.90;;;;;;5074309;28;20394;-71
2022/01/23 00:04:45;;;;;;;;;;;5.70;99.90;;;;;;5074273;28;20518;-72
2022/01/23 00:07:13;;;;;;;32.40;8.70;;;5.70;99.90;;;;;;5080544;28;20348;-72
2022/01/23 00:09:39;;;;;;;25.38;7.95;;;5.70;99.90;;;;;;5076383;28;20097;-71
2022/01/23 00:12:13;;;;;;;31.30;7.93;;;5.60;99.90;;;;;;5069437;28;20128;-71
2022/01/23 00:17:25;;;;;;;27.20;7.70;;;5.70;99.90;;;;;;5079877;28;20410;-71
2022/01/23 00:19:57;;;;;;;25.40;7.32;;;5.70;99.90;;;;;;5064498;28;20064;-71
2022/01/23 00:22:28;;;;;;;30.25;7.10;;;5.60;99.90;;;;;;5055258;28;20044;-71
2022/01/23 00:30:29;;;;;;;25.77;7.80;;;5.70;99.90;;;;;;5069722;28;20621;-70
2022/01/23 00:32:56;;;;;;;28.70;7.68;;;5.60;99.90;;;;;;5084394;28;20589;-71
2022/01/23 00:35:23;;;;;;;32.92;9.07;;;5.60;99.90;;;;;;5083723;28;20392;-71
2022/01/23 00:37:49;;;;;;;34.97;9.30;;;5.60;99.90;;;;;;5068643;28;20389;-71
2022/01/23 00:40:15;;;;;;;36.03;9.23;;;5.60;99.90;;;;;;5071304;28;20150;-71
2022/01/23 00:42:40;;;;;;;32.72;9.38;;;5.60;99.90;;;;;;5067592;28;20126;-71
2022/01/23 00:45:31;;;;;;;33.72;8.60;;;5.60;99.90;;;;;;5068803;28;20048;-71
2022/01/23 00:48:01;;;;;;;37.42;9.05;;;5.70;99.90;;;;;;5066545;28;20380;-72
2022/01/23 00:50:28;;;;;;;42.53;9.80;;;5.70;99.90;;;;;;5060286;28;20055;-72
2022/01/23 00:52:53;;;;;;;42.95;10.40;;;5.60;99.90;;;;;;5079341;28;20147;-72
2022/01/23 00:55:19;;;;;;;31.75;9.68;;;5.60;99.90;;;;;;5068057;28;20064;-71
2022/01/23 00:57:45;;;;;;;40.25;9.73;;;5.60;99.90;;;;;;5066179;28;20478;-71
2022/01/23 01:00:11;;;;;;;45.58;10.00;;;5.60;99.90;;;;;;5061754;28;20365;-72
2022/01/23 01:02:37;;;;;;;39.45;10.55;;;5.60;99.90;;;;;;5061939;28;21168;-71
2022/01/23 01:05:03;;;;;;;34.60;9.23;;;5.60;99.90;;;;;;5067747;28;20032;-71
2022/01/23 01:07:29;;;;;;;38.00;9.98;;;5.70;99.90;;;;;;5074324;28;20043;-72
2022/01/23 01:09:59;;;;;;;36.83;9.85;;;5.60;99.90;;;;;;5089445;28;20032;-72
2022/01/23 01:12:33;;;;;;;38.13;9.82;;;5.60;99.90;;;;;;5070185;28;20131;-72
2022/01/23 01:15:27;;;;;;;43.05;10.80;;;5.60;99.90;;;;;;5063212;28;20036;-73
2022/01/23 01:31:41;;;;;;;39.90;9.50;;;5.50;99.90;;;;;;5067949;28;20039;-71
2022/01/23 01:34:29;;;;;;;30.33;7.80;;;5.50;99.90;;;;;;5069022;28;20494;-71
2022/01/23 01:36:56;;;;;;;40.63;9.07;;;5.60;99.90;;;;;;5066941;28;20037;-71
2022/01/23 01:39:25;;;;;;;33.30;8.30;;;5.50;99.90;;;;;;5069167;28;20048;-72
2022/01/23 01:41:52;;;;;;;30.30;8.60;;;5.50;99.90;;;;;;5059897;28;20048;-71
2022/01/23 01:44:19;;;;;;;34.70;9.65;;;5.50;99.90;;;;;;5088415;28;20033;-70
2022/01/23 01:46:44;;;;;;;39.85;10.13;;;5.50;99.90;;;;;;5065865;28;20473;-71
2022/01/23 01:49:10;;;;;;;34.88;8.88;;;5.50;99.90;;;;;;5076766;28;20428;-71
2022/01/23 01:51:36;;;;;;;29.52;7.80;;;5.50;99.90;;;;;;5071977;28;20091;-70
2022/01/23 01:54:17;;;;;;;35.75;9.10;;;5.60;99.90;;;;;;5075327;28;20064;-70
2022/01/23 01:56:51;;;;;;;33.42;8.98;;;5.60;99.90;;;;;;5067996;28;20439;-71
2022/01/23 01:59:35;;;;;;;41.25;10.65;;;5.60;99.90;;;;;;5076971;28;20070;-71
2022/01/23 02:09:56;;;;;;;55.40;12.30;;;5.50;99.90;;;;;;5077678;28;20414;-71
2022/01/23 02:17:56;;;;;;;53.83;11.98;;;5.50;99.90;;;;;;5065855;28;20102;-71
2022/01/23 02:50:49;;;;;;;38.58;10.05;;;5.40;99.90;;;;;;5079503;28;20050;-71
2022/01/23 02:53:39;;;;;;;32.95;9.52;;;5.40;99.90;;;;;;5068487;28;20127;-71
2022/01/23 02:56:15;;;;;;;40.05;10.05;;;5.40;99.90;;;;;;5073619;28;20051;-71
2022/01/23 02:58:55;;;;;;;36.63;9.13;;;5.40;99.90;;;;;;5066373;28;20522;-71
2022/01/23 03:01:23;;;;;;;31.83;8.60;;;5.40;99.90;;;;;;5086861;28;20040;-71
2022/01/23 03:03:56;;;;;;;33.53;8.68;;;5.40;99.90;;;;;;5049169;28;20046;-71
2022/01/23 03:09:51;;;;;;;28.95;7.40;;;5.40;99.90;;;;;;5056534;28;20056;-71
2022/01/23 03:14:49;;;;;;;25.60;7.47;;;5.40;99.90;;;;;;5086965;28;20051;-71
2022/01/23 03:25:55;;;;;;;23.98;6.43;;;5.40;99.90;;;;;;5066498;28;20385;-71
2022/01/23 03:31:09;;;;;;;26.70;6.65;;;5.40;99.90;;;;;;5043083;28;20083;-71
2022/01/23 03:33:36;;;;;;;25.95;6.45;;;5.40;99.90;;;;;;5074768;28;20048;-71
2022/01/23 03:36:03;;;;;;;30.77;7.05;;;5.40;99.90;;;;;;5078585;28;20028;-71
2022/01/23 03:38:29;;;;;;;24.00;7.22;;;5.30;99.90;;;;;;5074494;28;20050;-71
2022/01/23 03:40:55;;;;;;;29.23;6.43;;;5.40;99.90;;;;;;5063382;28;20044;-71
2022/01/23 03:43:27;;;;;;;23.63;6.35;;;5.40;99.90;;;;;;5070287;28;20072;-71
2022/01/23 03:51:09;;;;;;;28.95;7.88;;;5.30;99.90;;;;;;5077310;28;20044;-71
2022/01/23 03:53:35;;;;;;;24.77;6.97;;;5.30;99.90;;;;;;5081686;28;20039;-71
2022/01/23 03:56:01;;;;;;;27.60;6.80;;;5.30;99.90;;;;;;5058437;28;20973;-71
2022/01/23 03:58:26;;;;;;;24.90;7.28;;;5.30;99.90;;;;;;5063007;28;20475;-71
2022/01/23 04:00:52;;;;;;;29.52;7.63;;;5.30;99.90;;;;;;5067569;28;20435;-71
2022/01/23 04:03:19;;;;;;;30.65;6.85;;;5.30;99.90;;;;;;5067394;28;20037;-71
2022/01/23 04:05:45;;;;;;;33.17;7.72;;;5.30;99.90;;;;;;5063697;28;20423;-71
2022/01/23 04:08:11;;;;;;;25.60;7.47;;;5.30;99.90;;;;;;5064191;28;20761;-71
2022/01/23 04:10:37;;;;;;;35.42;8.43;;;5.30;99.90;;;;;;5066397;28;20033;-71
2022/01/23 04:13:28;;;;;;;35.83;9.02;;;5.30;99.90;;;;;;5070350;28;20033;-71
2022/01/23 04:35:15;;;;;;;80.97;17.33;;;5.20;99.90;;;;;;5067196;28;20488;-71
2022/01/23 04:45:40;;;;;;;95.03;20.00;;;5.20;99.90;;;;;;5081840;28;20474;-71
2022/01/23 05:01:53;;;;;;;100.18;20.88;;;5.20;99.90;;;;;;5068759;28;20426;-72
2022/01/23 05:04:22;;;;;;;107.78;20.98;;;5.20;99.90;;;;;;5088695;28;20455;-72
2022/01/23 05:09:27;;;;;;;97.57;18.05;;;5.20;99.90;;;;;;5066457;28;19920;-71
2022/01/23 05:12:01;;;;;;;80.70;18.15;;;5.20;99.90;;;;;;5102595;28;20044;-72
2022/01/23 05:14:41;;;;;;;103.10;20.73;;;5.20;99.90;;;;;;5061500;28;20052;-72
2022/01/23 05:17:10;;;;;;;102.35;20.50;;;5.20;99.90;;;;;;5068259;28;20175;-71
2022/01/23 05:19:38;;;;;;;111.47;21.00;;;5.20;99.90;;;;;;5063378;28;20048;-72
2022/01/23 05:24:39;;;;;;;88.00;18.52;;;5.10;99.90;;;;;;5077564;28;20391;-71
2022/01/23 05:27:07;;;;;;;91.10;18.17;;;5.10;99.90;;;;;;5081576;28;20487;-71
2022/01/23 05:29:34;;;;;;;92.78;16.83;;;5.10;99.90;;;;;;5070464;28;20048;-72
2022/01/23 05:31:59;;;;;;;97.47;17.95;;;5.10;99.90;;;;;;5070632;28;20032;-72
2022/01/23 05:34:26;;;;;;;90.25;17.52;;;5.10;99.90;;;;;;5062843;28;20422;-73
2022/01/23 05:36:52;;;;;;;89.18;16.38;;;5.00;99.90;;;;;;5070073;28;20028;-71
2022/01/23 05:39:21;;;;;;;93.00;17.50;;;5.10;99.90;;;;;;5061870;28;20099;-72
2022/01/23 05:41:48;;;;;;;71.40;15.77;;;5.10;99.90;;;;;;5071323;28;20462;-73
2022/01/23 05:44:14;;;;;;;80.45;14.82;;;5.00;99.90;;;;;;5064481;28;20044;-72
2022/01/23 05:46:39;;;;;;;58.40;12.77;;;5.10;99.90;;;;;;5067176;28;20078;-71
2022/01/23 05:49:06;;;;;;;50.72;12.65;;;5.00;99.90;;;;;;5065020;28;20052;-71
2022/01/23 05:51:31;;;;;;;59.15;12.63;;;5.00;99.90;;;;;;5056810;28;20123;-71
2022/01/23 05:53:57;;;;;;;53.70;12.50;;;5.10;99.90;;;;;;5065886;28;20119;-71
2022/01/23 05:56:23;;;;;;;59.63;12.43;;;5.10;99.90;;;;;;5072075;28;20294;-72
2022/01/23 05:58:48;;;;;;;56.00;12.30;;;5.00;99.90;;;;;;5067536;28;20557;-71
2022/01/23 06:01:14;;;;;;;54.85;13.15;;;5.00;99.90;;;;;;5068268;28;20037;-71
2022/01/23 06:03:39;;;;;;;44.53;11.38;;;5.10;99.90;;;;;;5070075;28;20040;-71
2022/01/23 06:06:05;;;;;;;45.10;10.90;;;5.00;99.90;;;;;;5044755;28;20384;-70
2022/01/23 06:08:30;;;;;;;44.08;11.45;;;5.00;99.90;;;;;;5054483;28;20036;-71
2022/01/23 06:10:57;;;;;;;63.83;13.45;;;5.10;99.90;;;;;;5051637;28;20075;-71
2022/01/23 06:13:24;;;;;;;61.53;13.20;;;5.00;99.90;;;;;;5067989;28;20234;-71
2022/01/23 06:15:50;;;;;;;61.90;12.80;;;5.00;99.90;;;;;;5094440;28;20037;-71
2022/01/23 06:18:16;;;;;;;64.35;13.35;;;5.00;99.90;;;;;;5071279;28;20050;-71
2022/01/23 06:20:42;;;;;;;50.70;11.18;;;5.00;99.90;;;;;;5087823;28;20047;-70
2022/01/23 06:23:07;;;;;;;48.40;12.65;;;5.00;99.90;;;;;;5087295;28;20066;-71
2022/01/23 06:25:35;;;;;;;56.00;12.85;;;5.00;99.90;;;;;;5082410;28;20398;-70
2022/01/23 06:28:04;;;;;;;54.08;12.65;;;4.90;99.90;;;;;;5088401;28;20036;-71
2022/01/23 06:30:31;;;;;;;61.30;13.35;;;5.00;99.90;;;;;;5067214;28;20036;-71
2022/01/23 06:32:56;;;;;;;66.57;14.45;;;5.00;99.90;;;;;;5088351;28;20376;-70
2022/01/23 06:35:22;;;;;;;54.42;13.40;;;5.00;99.90;;;;;;5082312;28;20040;-71
2022/01/23 06:37:48;;;;;;;53.78;13.48;;;5.00;99.90;;;;;;5065463;28;20544;-71
2022/01/23 06:40:14;;;;;;;53.85;13.13;;;5.00;99.90;;;;;;5072769;28;20040;-70
2022/01/23 06:42:39;;;;;;;51.15;13.60;;;5.00;99.90;;;;;;5073575;28;20041;-70
2022/01/23 06:45:05;;;;;;;51.50;13.38;;;4.90;99.90;;;;;;5064967;28;20029;-71
2022/01/23 06:47:30;;;;;;;54.67;13.00;;;5.00;99.90;;;;;;5065801;28;20512;-71
2022/01/23 06:49:56;;;;;;;68.18;14.45;;;5.00;99.90;;;;;;5067439;28;20135;-71
2022/01/23 06:52:22;;;;;;;67.50;13.65;;;5.00;99.90;;;;;;5087536;28;20170;-71
2022/01/23 06:54:48;;;;;;;66.63;14.50;;;5.00;99.90;;;;;;5082472;28;20127;-71
2022/01/23 06:57:14;;;;;;;70.32;15.40;;;5.00;99.90;;;;;;5072672;28;20036;-71
2022/01/23 06:59:39;;;;;;;72.70;15.43;;;5.00;99.90;;;;;;5060037;28;20550;-71
2022/01/23 07:02:05;;;;;;;83.70;16.52;;;5.00;99.90;;;;;;5060665;28;20391;-72
2022/01/23 07:04:30;;;;;;;64.00;15.38;;;4.90;99.90;;;;;;5071412;28;20066;-71
2022/01/23 07:06:56;;;;;;;57.45;15.30;;;5.00;99.90;;;;;;5080864;28;20051;-70
2022/01/23 07:09:22;;;;;;;64.32;14.48;;;5.00;99.90;;;;;;5069205;28;20424;-70
2022/01/23 07:11:48;;;;;;;72.00;16.13;;;5.00;99.90;;;;;;5073420;28;20036;-71
2022/01/23 07:14:13;;;;;;;75.15;16.70;;;5.00;99.90;;;;;;5040221;28;20040;-71
2022/01/23 07:16:39;;;;;;;79.72;15.68;;;5.00;99.90;;;;;;5069234;28;20052;-71
2022/01/23 07:19:04;;;;;;;74.93;16.25;;;5.00;99.90;;;;;;5074024;28;20044;-71
2022/01/23 07:21:30;;;;;;;89.07;18.15;;;5.00;99.90;;;;;;5058006;28;20080;-72
2022/01/23 07:23:55;;;;;;;80.07;16.88;;;5.00;99.90;;;;;;5047250;28;20402;-72
2022/01/23 07:26:24;;;;;;;74.38;16.08;;;5.10;99.90;;;;;;5068055;28;20051;-71
2022/01/23 07:28:52;;;;;;;74.65;16.88;;;5.10;99.90;;;;;;5064504;28;20048;-71
2022/01/23 07:34:16;;;;;;;75.50;16.85;;;5.00;99.90;;;;;;5033130;28;20036;-71
2022/01/23 07:36:42;;;;;;;78.65;17.15;;;5.00;99.90;;;;;;5068306;28;20063;-71
2022/01/23 07:39:08;;;;;;;77.40;17.02;;;5.10;99.90;;;;;;5062440;28;20043;-71
2022/01/23 07:41:33;;;;;;;69.03;14.90;;;5.00;99.90;;;;;;5067831;28;20039;-71
2022/01/23 07:43:59;;;;;;;77.10;16.00;;;5.10;99.90;;;;;;5063923;28;20043;-71
2022/01/23 07:46:25;;;;;;;74.07;15.60;;;5.00;99.90;;;;;;5062102;28;20052;-71
2022/01/23 07:48:50;;;;;;;76.47;15.52;;;5.10;99.90;;;;;;5067806;28;20750;-71
2022/01/23 07:51:16;;;;;;;81.25;16.38;;;5.10;99.90;;;;;;5077663;28;20036;-71
2022/01/23 07:53:42;;;;;;;80.03;17.50;;;5.20;99.90;;;;;;5079118;28;20055;-71
2022/01/23 07:56:07;;;;;;;71.47;16.25;;;5.10;99.90;;;;;;5082573;28;20040;-71
2022/01/23 07:58:33;;;;;;;72.00;16.33;;;5.10;99.90;;;;;;5068915;28;20044;-72
2022/01/23 08:00:58;;;;;;;73.50;16.63;;;5.10;99.90;;;;;;5069035;28;20047;-71
2022/01/23 08:03:24;;;;;;;75.00;16.58;;;5.20;99.90;;;;;;5045611;28;20087;-71
2022/01/23 08:05:50;;;;;;;64.97;16.00;;;5.20;99.90;;;;;;5071807;28;20037;-72
2022/01/23 08:08:15;;;;;;;74.15;16.88;;;5.10;99.90;;;;;;5068750;28;20048;-71
2022/01/23 08:10:41;;;;;;;69.93;16.92;;;5.20;99.90;;;;;;5077259;28;20040;-71
2022/01/23 08:13:06;;;;;;;84.53;17.75;;;5.20;99.90;;;;;;5082035;28;20547;-71
2022/01/23 08:15:35;;;;;;;79.10;18.40;;;5.20;99.90;;;;;;5059973;28;20036;-71
2022/01/23 08:18:02;;;;;;;84.90;18.23;;;5.20;99.90;;;;;;5065853;28;20036;-72
2022/01/23 08:20:28;;;;;;;82.60;18.60;;;5.20;99.90;;;;;;5051784;28;20475;-71
2022/01/23 08:22:54;;;;;;;79.28;18.33;;;5.30;99.90;;;;;;5067937;28;20068;-72
2022/01/23 08:25:20;;;;;;;78.60;17.83;;;5.30;99.90;;;;;;5057697;28;20044;-72
2022/01/23 08:27:45;;;;;;;76.18;17.60;;;5.30;99.90;;;;;;5062636;28;20136;-71
2022/01/23 08:30:13;;;;;;;90.03;17.58;;;5.30;99.90;;;;;;5049640;28;20102;-71
2022/01/23 08:32:39;;;;;;;70.60;16.48;;;5.30;99.90;;;;;;5067414;28;20067;-72
2022/01/23 08:35:05;;;;;;;72.72;17.10;;;5.30;99.90;;;;;;5070059;28;20032;-71
2022/01/23 08:37:31;;;;;;;68.38;18.20;;;5.40;99.90;;;;;;5063350;28;20751;-72
2022/01/23 08:39:57;;;;;;;75.40;17.58;;;5.50;99.90;;;;;;5056484;28;20560;-72
2022/01/23 08:42:22;;;;;;;75.40;17.15;;;5.50;99.90;;;;;;5057914;28;20318;-71
2022/01/23 08:44:49;;;;;;;65.30;17.48;;;5.50;99.90;;;;;;5066738;28;20471;-72
2022/01/23 08:47:15;;;;;;;67.18;17.75;;;5.50;99.90;;;;;;5063170;28;20045;-71
2022/01/23 08:49:45;;;;;;;81.03;17.98;;;5.50;99.90;;;;;;5056474;28;20040;-72
2022/01/23 08:52:16;;;;;;;73.32;17.40;;;5.50;99.90;;;;;;5083962;28;20457;-72
2022/01/23 08:54:41;;;;;;;75.90;16.48;;;5.50;99.90;;;;;;5087195;28;20032;-71
2022/01/23 08:57:07;;;;;;;68.35;17.27;;;5.50;99.90;;;;;;5068346;28;20024;-71
2022/01/23 08:59:32;;;;;;;74.93;18.20;;;5.60;99.90;;;;;;5067736;28;20041;-71
2022/01/23 09:01:58;;;;;;;68.03;16.52;;;5.60;99.90;;;;;;5062322;28;20040;-72
2022/01/23 09:04:23;;;;;;;69.47;16.40;;;5.70;99.90;;;;;;5071252;28;20039;-71
2022/01/23 09:06:49;;;;;;;66.60;16.70;;;5.70;99.90;;;;;;5057701;28;20043;-72
2022/01/23 09:09:18;;;;;;;64.68;15.80;;;5.70;99.90;;;;;;5083460;28;20032;-72
2022/01/23 09:14:26;;;;;;;71.63;18.60;;;5.80;99.90;;;;;;5096858;28;20049;-72
2022/01/23 09:16:52;;;;;;;67.63;17.23;;;5.80;99.90;;;;;;5065943;28;20463;-72
2022/01/23 09:19:20;;;;;;;66.57;17.00;;;5.90;99.90;;;;;;5069031;28;20068;-72
2022/01/23 09:21:49;;;;;;;60.72;17.67;;;5.90;99.90;;;;;;5083288;28;20037;-72
2022/01/23 09:24:16;;;;;;;58.78;16.52;;;5.90;99.90;;;;;;5066445;28;20549;-72
2022/01/23 09:26:44;;;;;;;70.63;17.80;;;5.90;99.90;;;;;;5070526;28;20068;-72
2022/01/23 09:29:23;;;;;;;68.50;16.77;;;6.00;99.90;;;;;;5081581;28;20044;-72
2022/01/23 09:31:49;;;;;;;56.60;16.63;;;6.00;99.90;;;;;;5070006;28;20471;-72
2022/01/23 09:34:20;;;;;;;61.30;16.58;;;6.00;99.90;;;;;;5074670;28;20127;-73
2022/01/23 09:36:47;;;;;;;60.40;16.90;;;6.10;99.90;;;;;;5094370;28;20046;-73
2022/01/23 09:39:15;;;;;;;64.15;16.35;;;6.10;99.90;;;;;;5062859;28;20103;-72
2022/01/23 09:41:57;;;;;;;53.20;15.93;;;6.10;99.90;;;;;;5063782;28;20483;-73
2022/01/23 09:44:24;;;;;;;50.20;14.25;;;6.20;99.90;;;;;;5100288;28;20487;-72
2022/01/23 09:46:50;;;;;;;55.03;14.82;;;6.10;99.90;;;;;;5056102;28;20071;-73
2022/01/23 09:49:17;;;;;;;51.70;14.65;;;6.20;99.90;;;;;;5061521;28;20036;-73
2022/01/23 09:51:45;;;;;;;51.13;14.02;;;6.20;99.90;;;;;;5085685;28;20040;-73
2022/01/23 09:54:15;;;;;;;49.15;13.70;;;6.30;99.90;;;;;;5071329;28;20045;-73
2022/01/23 09:56:42;;;;;;;47.85;14.13;;;6.20;99.90;;;;;;5074337;28;20443;-73
2022/01/23 09:59:13;;;;;;;49.88;13.65;;;6.30;99.90;;;;;;5067810;28;20041;-74
2022/01/23 10:01:41;;;;;;;46.60;13.07;;;6.40;99.90;;;;;;5065372;28;20059;-72
2022/01/23 10:04:08;;;;;;;49.65;14.05;;;6.40;99.90;;;;;;5061195;28;21211;-73
2022/01/23 10:06:34;;;;;;;48.70;14.10;;;6.40;99.90;;;;;;5061038;28;20094;-73
2022/01/23 10:09:00;;;;;;;47.58;13.20;;;6.40;99.90;;;;;;5081028;28;20074;-73
2022/01/23 10:11:31;;;;;;;48.22;12.82;;;6.40;99.90;;;;;;5083512;28;20048;-73
2022/01/23 10:13:57;;;;;;;47.10;13.57;;;6.40;99.90;;;;;;5070596;28;20123;-73
2022/01/23 10:16:23;;;;;;;51.42;14.15;;;6.50;99.90;;;;;;5067113;28;20123;-72
2022/01/23 10:18:48;;;;;;;46.80;14.55;;;6.60;99.90;;;;;;5074017;28;20041;-73
2022/01/23 10:21:15;;;;;;;49.58;14.30;;;6.60;99.90;;;;;;5076890;28;20043;-73
2022/01/23 10:23:41;;;;;;;46.25;13.70;;;6.70;99.90;;;;;;5067197;28;20044;-72
2022/01/23 10:26:07;;;;;;;41.60;13.45;;;6.80;99.90;;;;;;5071097;28;20048;-72
2022/01/23 10:28:34;;;;;;;44.03;13.45;;;6.70;99.90;;;;;;5070488;28;20049;-72
2022/01/23 10:31:05;;;;;;;52.35;13.98;;;6.80;99.90;;;;;;5067931;28;20517;-73
2022/01/23 10:33:36;;;;;;;39.80;13.13;;;6.90;99.90;;;;;;5068494;28;20123;-72
2022/01/23 10:36:07;;;;;;;34.45;10.73;;;6.90;99.90;;;;;;5073332;28;20040;-72
2022/01/23 10:38:55;;;;;;;39.03;12.77;;;6.90;99.90;;;;;;5083227;28;20510;-72
2022/01/23 10:41:32;;;;;;;39.70;12.45;;;7.00;99.90;;;;;;5061587;28;20048;-73
2022/01/23 10:50:07;;;;;;;38.20;12.52;;;7.20;99.90;;;;;;5070849;28;20510;-72
2022/01/23 10:52:43;;;;;;;35.97;11.05;;;7.20;99.90;;;;;;5078794;28;20047;-72
2022/01/23 10:55:12;;;;;;;34.95;11.68;;;7.20;99.90;;;;;;5070555;28;20047;-72
2022/01/23 10:57:42;;;;;;;26.98;9.90;;;7.20;99.90;;;;;;5065099;28;20075;-73
2022/01/23 11:00:10;;;;;;;28.08;9.70;;;7.20;99.90;;;;;;5055743;28;20049;-74
2022/01/23 11:02:43;;;;;;;29.67;10.77;;;7.20;99.90;;;;;;5044529;28;20059;-73
2022/01/23 11:05:15;;;;;;;30.33;10.65;;;7.30;99.90;;;;;;5036945;28;20471;-73
2022/01/23 11:07:44;;;;;;;26.27;7.88;;;7.40;99.90;;;;;;5055760;28;20047;-73
2022/01/23 11:10:22;;;;;;;20.63;8.45;;;7.40;99.90;;;;;;5076104;28;20040;-72
2022/01/23 11:18:15;;;;;;;24.80;8.30;;;7.40;99.90;;;;;;5059360;28;20051;-72
2022/01/23 11:20:44;;;;;;;18.50;6.18;;;7.50;99.90;;;;;;5092080;28;20055;-72
2022/01/23 11:23:20;;;;;;;16.52;5.40;;;7.50;99.90;;;;;;5060907;28;20487;-72
2022/01/23 11:26:10;;;;;;;12.82;4.82;;;7.50;99.90;;;;;;5061410;28;20090;-71
2022/01/23 11:28:44;;;;;;;13.45;5.28;;;7.40;99.90;;;;;;5038086;28;20080;-73
2022/01/23 11:31:17;;;;;;;22.77;7.45;;;7.40;99.90;;;;;;5057941;28;20075;-71
2022/01/23 11:33:45;;;;;;;20.88;6.95;;;7.40;99.90;;;;;;5057931;28;20071;-72
2022/01/23 11:36:12;;;;;;;16.45;5.38;;;7.40;99.90;;;;;;5060786;28;20032;-73
2022/01/23 11:38:39;;;;;;;13.55;5.20;;;7.30;99.90;;;;;;5054022;28;20051;-73
2022/01/23 11:55:03;;;;;;;12.88;4.97;;;7.30;99.90;;;;;;5046102;28;20044;-72
2022/01/23 11:57:45;;;;;;;7.50;2.80;;;7.30;99.90;;;;;;5057283;28;20123;-72
2022/01/23 12:00:20;;;;;;;12.55;4.95;;;7.40;99.90;;;;;;5062374;28;20056;-73
2022/01/23 12:03:07;;;;;;;10.80;3.42;;;7.30;99.90;;;;;;5058734;28;20496;-72
2022/01/23 12:05:33;;;;;;;3.35;1.42;;;7.40;99.90;;;;;;5063209;28;20044;-71
2022/01/23 12:08:21;;;;;;;7.03;2.67;;;7.30;99.90;;;;;;5076946;28;20044;-72
2022/01/23 12:16:32;;;;;;;6.63;2.90;;;7.30;99.90;;;;;;5051125;28;20053;-73
2022/01/23 12:19:20;;;;;;;6.28;1.85;;;7.40;99.90;;;;;;5047867;28;20232;-73
2022/01/23 12:21:47;;;;;;;4.95;0.98;;;7.40;99.90;;;;;;5058203;28;20045;-72
2022/01/23 12:24:15;;;;;;;3.35;0.80;;;7.40;99.90;;;;;;5065249;28;20036;-74
2022/01/23 12:26:46;;;;;;;1.83;0.70;;;7.40;99.90;;;;;;5058183;28;20468;-73
2022/01/23 12:29:25;;;;;;;4.75;1.67;;;7.40;99.90;;;;;;5073703;28;20036;-75
2022/01/23 12:32:29;;;;;;;8.52;2.30;;;7.40;99.90;;;;;;5075787;28;20036;-72
2022/01/23 12:35:00;;;;;;;8.90;3.45;;;7.40;99.90;;;;;;5074267;28;20414;-73
2022/01/23 12:37:46;;;;;;;9.00;3.58;;;7.50;99.90;;;;;;5067700;28;20076;-72
2022/01/23 12:40:22;;;;;;;7.88;3.15;;;7.50;99.90;;;;;;5052995;28;20032;-73
2022/01/23 12:43:04;;;;;;;11.77;3.55;;;7.50;99.90;;;;;;5053864;28;20557;-72
2022/01/23 12:45:56;;;;;;;10.85;3.75;;;7.50;99.90;;;;;;5059049;28;20041;-72
2022/01/23 12:48:25;;;;;;;10.70;4.20;;;7.50;99.90;;;;;;5058715;28;20480;-72
2022/01/23 12:51:05;;;;;;;13.00;4.65;;;7.50;99.90;;;;;;5089689;28;20040;-72
2022/01/23 12:53:38;;;;;;;11.15;3.88;;;7.50;99.90;;;;;;5059130;28;20044;-73
2022/01/23 12:56:13;;;;;;;7.32;3.50;;;7.50;99.90;;;;;;5067063;28;20272;-72
2022/01/23 12:58:39;;;;;;;9.38;3.97;;;7.40;99.90;;;;;;5063613;28;20082;-72
2022/01/23 13:01:17;;;;;;;13.75;5.70;;;7.40;99.90;;;;;;5085421;28;20049;-72
2022/01/23 13:04:08;;;;;;;11.25;4.05;;;7.50;99.90;;;;;;5057242;28;20123;-72
2022/01/23 13:06:38;;;;;;;7.50;3.67;;;7.50;99.90;;;;;;5066922;28;20028;-73
2022/01/23 13:09:37;;;;;;;8.38;4.00;;;7.50;99.90;;;;;;5074975;28;20058;-71
2022/01/23 13:14:58;;;;;;;9.57;4.50;;;7.40;99.90;;;;;;5056023;28;20108;-72
2022/01/23 13:26:36;;;;;;;11.38;5.00;;;7.40;99.90;;;;;;5057710;28;20071;-72
2022/01/23 13:29:56;;;;;;;13.52;5.15;;;7.40;99.90;;;;;;5050385;28;20040;-71
2022/01/23 13:35:03;;;;;;;11.23;4.80;;;7.40;99.90;;;;;;5090762;28;20178;-72
2022/01/23 13:37:33;;;;;;;12.68;4.80;;;7.40;99.90;;;;;;5062248;28;20040;-72
2022/01/23 13:40:04;;;;;;;12.77;4.70;;;7.40;99.90;;;;;;5067162;28;20093;-72
2022/01/23 13:48:21;;;;;;;8.23;3.85;;;7.30;99.90;;;;;;5065068;28;20101;-72
2022/01/23 13:59:15;;;;;;;12.68;4.72;;;7.30;99.90;;;;;;5078215;28;20052;-72
2022/01/23 14:02:06;;;;;;;8.70;4.13;;;7.30;99.90;;;;;;5078363;28;20044;-72
2022/01/23 14:04:39;;;;;;;11.57;3.40;;;7.30;99.90;;;;;;5072869;28;20048;-72
2022/01/23 14:07:05;;;;;;;5.55;2.88;;;7.30;99.90;;;;;;5083549;28;20076;-72
2022/01/23 14:09:43;;;;;;;5.20;2.10;;;7.30;99.90;;;;;;5063527;28;20049;-72
2022/01/23 14:12:11;;;;;;;6.15;2.60;;;7.20;99.90;;;;;;5059337;28;20032;-72
2022/01/23 14:15:03;;;;;;;4.97;2.28;;;7.20;99.90;;;;;;5063264;28;20040;-72
2022/01/23 14:17:28;;;;;;;5.25;2.20;;;7.20;99.90;;;;;;5091114;28;20464;-72
2022/01/23 14:20:00;;;;;;;4.82;2.25;;;7.30;99.90;;;;;;5076742;28;20046;-72
2022/01/23 14:22:28;;;;;;;10.52;3.13;;;7.20;99.90;;;;;;5059221;28;20093;-72
2022/01/23 14:25:06;;;;;;;7.68;2.60;;;7.20;99.90;;;;;;5065074;28;20396;-72
2022/01/23 14:27:32;;;;;;;8.25;2.85;;;7.20;99.90;;;;;;5051112;28;20292;-73
2022/01/23 14:29:59;;;;;;;9.15;3.03;;;7.20;99.90;;;;;;5085801;28;20139;-73
2022/01/23 14:32:36;;;;;;;5.63;2.42;;;7.20;99.90;;;;;;5062555;28;20041;-73
2022/01/23 14:35:11;;;;;;;4.75;2.38;;;7.10;99.90;;;;;;5061136;28;20059;-73
2022/01/23 14:37:38;;;;;;;7.50;2.67;;;7.10;99.90;;;;;;5082401;28;20488;-73
2022/01/23 14:40:13;;;;;;;6.88;2.47;;;7.10;99.90;;;;;;5060329;28;20075;-72
2022/01/23 14:42:39;;;;;;;5.25;2.15;;;7.00;99.90;;;;;;5066693;28;20135;-72
2022/01/23 14:45:07;;;;;;;7.65;2.47;;;7.10;99.90;;;;;;5063928;28;20123;-73
2022/01/23 14:47:38;;;;;;;5.45;2.30;;;7.10;99.90;;;;;;5084043;28;20728;-73
2022/01/23 14:50:10;;;;;;;6.20;2.33;;;7.00;99.90;;;;;;5080139;28;20453;-72
2022/01/23 14:52:36;;;;;;;5.10;3.00;;;7.00;99.90;;;;;;5064001;28;20036;-72
2022/01/23 14:55:03;;;;;;;6.10;3.00;;;6.90;99.90;;;;;;5052781;28;21452;-73
2022/01/23 14:57:33;;;;;;;5.22;2.42;;;6.90;99.90;;;;;;5079431;28;20460;-72
2022/01/23 14:59:59;;;;;;;10.27;3.28;;;6.90;99.90;;;;;;5056142;28;20094;-72
2022/01/23 15:02:25;;;;;;;5.82;3.08;;;6.90;99.90;;;;;;5085910;28;20472;-72
2022/01/23 15:04:50;;;;;;;8.45;3.33;;;6.90;99.90;;;;;;5043089;28;20433;-72
2022/01/23 15:07:18;;;;;;;8.65;3.17;;;6.90;99.90;;;;;;5056668;28;20051;-72
2022/01/23 15:09:46;;;;;;;7.32;3.08;;;6.90;99.90;;;;;;5067616;28;20043;-72
2022/01/23 15:12:13;;;;;;;9.82;3.53;;;6.90;99.90;;;;;;5064732;28;20044;-73
2022/01/23 15:14:40;;;;;;;9.82;3.47;;;6.90;99.90;;;;;;5065899;28;20069;-72
2022/01/23 15:17:05;;;;;;;6.68;3.03;;;6.90;99.90;;;;;;5078519;28;20037;-72
2022/01/23 15:19:32;;;;;;;10.05;2.88;;;6.80;99.90;;;;;;5051434;28;20376;-72
2022/01/23 15:21:57;;;;;;;8.25;3.03;;;6.80;99.90;;;;;;5084743;28;20054;-72
2022/01/23 15:24:23;;;;;;;6.65;2.72;;;6.80;99.90;;;;;;5063107;28;20748;-72
2022/01/23 15:26:48;;;;;;;9.57;3.20;;;6.80;99.90;;;;;;5050610;28;20407;-72
2022/01/23 15:29:15;;;;;;;6.80;3.22;;;6.80;99.90;;;;;;5062448;28;20056;-72
2022/01/23 15:31:40;;;;;;;8.48;3.42;;;6.80;99.90;;;;;;5056442;28;20055;-72
2022/01/23 15:34:06;;;;;;;6.68;3.40;;;6.70;99.90;;;;;;5071666;28;20052;-72
2022/01/23 15:36:32;;;;;;;7.40;3.65;;;6.80;99.90;;;;;;5087147;28;20123;-73
2022/01/23 15:38:58;;;;;;;7.20;3.60;;;6.70;99.90;;;;;;5050165;28;20060;-73
2022/01/23 15:41:24;;;;;;;7.57;3.70;;;6.70;99.90;;;;;;5059026;28;20068;-72
2022/01/23 15:43:49;;;;;;;9.90;3.90;;;6.70;99.90;;;;;;5064483;28;20525;-73
2022/01/23 15:46:15;;;;;;;7.55;3.67;;;6.60;99.90;;;;;;5072216;28;20036;-72
2022/01/23 15:48:42;;;;;;;9.20;3.58;;;6.60;99.90;;;;;;5058914;28;20040;-72
2022/01/23 15:51:07;;;;;;;13.73;4.05;;;6.60;99.90;;;;;;5061098;28;20495;-73
2022/01/23 15:53:33;;;;;;;10.57;4.07;;;6.60;99.90;;;;;;5067284;28;20040;-72
2022/01/23 15:55:59;;;;;;;9.95;4.30;;;6.50;99.90;;;;;;5071125;28;20039;-73
2022/01/23 15:58:28;;;;;;;10.43;4.97;;;6.60;99.90;;;;;;5083443;28;20144;-73
2022/01/23 16:00:54;;;;;;;15.23;6.35;;;6.50;99.90;;;;;;5071569;28;20045;-75
2022/01/23 16:03:20;;;;;;;18.85;7.50;;;6.50;99.90;;;;;;5076834;28;20036;-73
2022/01/23 16:05:45;;;;;;;17.83;8.38;;;6.50;99.90;;;;;;5077174;28;20406;-73
2022/01/23 16:08:13;;;;;;;22.98;8.82;;;6.50;99.90;;;;;;5064889;28;20047;-73
2022/01/23 16:10:38;;;;;;;21.88;8.80;;;6.50;99.90;;;;;;5082414;28;20531;-72
2022/01/23 16:13:04;;;;;;;24.58;9.48;;;6.40;99.90;;;;;;5070103;28;20123;-73
2022/01/23 16:15:29;;;;;;;25.30;9.23;;;6.40;99.90;;;;;;5079134;28;20044;-72